F/V Anthineas — FQVN — position and weather

sailwx.info

Track history (hours):
 
Tides and Currents Weather Stations Pressure Air Temp Water Temp Dewpoint Dewpoint Depression Visibility Wind Speed Wind Dir Waves Ship Positions

F/V Anthineas

Last reported at 2018-Jun-15 07:42 UTC. Time now 2018-Jun-18 11:31 UTC.
Position N 46°30' W 001°47'.

Length 23 m.

Type: Fishing. MMSI: 228367000.

Date/timePositionNaut miles runAvg speedWind from/ knotsBaromVisibWave heightAir tempDewpointWater temp
2018-Jun-15 07:42N 46°30' W 001°47'0 0.0
2018-Jun-15 07:20N 46°30' W 001°47'0 0.0
2018-Jun-15 07:00N 46°30' W 001°47'0 0.0
2018-Jun-13 05:59N 46°30' W 001°47'0 0.0
2018-Jun-12 15:11N 46°30' W 001°47'0 0.0
2018-Jun-12 15:00N 46°30' W 001°47'0 0.1
2018-Jun-12 14:31N 46°30' W 001°47'  
2018-Jun-08 08:21N 46°30' W 001°47'0 0.0
2018-Jun-08 08:00N 46°30' W 001°47'0 0.0
2018-Jun-08 07:30N 46°30' W 001°47'0 0.0
2018-Jun-08 07:00N 46°30' W 001°47'0 0.0
2018-Jun-08 06:30N 46°30' W 001°47'0 0.0
2018-Jun-08 06:00N 46°30' W 001°47'0 0.0
2018-Jun-08 05:30N 46°30' W 001°47'0 0.0
2018-Jun-07 21:36N 46°30' W 001°47'0 0.0
2018-Jun-07 21:30N 46°30' W 001°47'0 0.0
2018-Jun-07 21:00N 46°30' W 001°47'0 0.3
2018-Jun-07 20:30N 46°30' W 001°48'0 0.2
2018-Jun-07 20:00N 46°30' W 001°47'0 0.0
2018-Jun-07 19:29N 46°30' W 001°47'0 0.2
2018-Jun-07 19:00N 46°30' W 001°48'0 0.5
2018-Jun-07 18:30N 46°30' W 001°47'1 1.5
2018-Jun-07 18:00N 46°29' W 001°47'4 7.8
2018-Jun-07 17:30N 46°28' W 001°53'4 8.8
2018-Jun-07 17:00N 46°27' W 001°59'4 8.6
2018-Jun-07 16:30N 46°27' W 002°05'9 0.5
2018-Jun-07 00:28N 46°32' W 002°14'3 7.0
2018-Jun-07 00:00N 46°32' W 002°10'3 7.0
2018-Jun-06 23:30N 46°31' W 002°05'3 6.8
2018-Jun-06 23:00N 46°30' W 002°00'3 7.0
2018-Jun-06 22:30N 46°30' W 001°55'4 7.0
2018-Jun-06 22:00N 46°28' W 001°50'2 4.4
2018-Jun-06 21:30N 46°30' W 001°48'0 0.9
2018-Jun-06 21:00N 46°30' W 001°47'2 4.3
2018-Jun-06 20:30N 46°28' W 001°47'3 6.9
2018-Jun-06 20:00N 46°24' W 001°48'4 7.8
2018-Jun-06 19:30N 46°21' W 001°50'4 8.1
2018-Jun-06 19:00N 46°17' W 001°51'4 7.8
2018-Jun-06 18:30N 46°13' W 001°53'  
Track history (hours):
 
Tides and Currents Weather Stations Pressure Air Temp Water Temp Dewpoint Dewpoint Depression Visibility Wind Speed Wind Dir Waves Ship Positions

F/V Anthineas

Last reported at 2018-Jun-15 07:42 UTC. Time now 2018-Jun-18 11:31 UTC.
Position N 46°30' W 001°47'.

Length 23 m.

Type: Fishing. MMSI: 228367000.

Date/timePositionNaut miles runAvg speedWind from/ knotsBaromVisibWave heightAir tempDewpointWater temp
2018-Jun-15 07:42N 46°30' W 001°47'0 0.0
2018-Jun-15 07:20N 46°30' W 001°47'0 0.0
2018-Jun-15 07:00N 46°30' W 001°47'0 0.0
2018-Jun-13 05:59N 46°30' W 001°47'0 0.0
2018-Jun-12 15:11N 46°30' W 001°47'0 0.0
2018-Jun-12 15:00N 46°30' W 001°47'0 0.1
2018-Jun-12 14:31N 46°30' W 001°47'  
2018-Jun-08 08:21N 46°30' W 001°47'0 0.0
2018-Jun-08 08:00N 46°30' W 001°47'0 0.0
2018-Jun-08 07:30N 46°30' W 001°47'0 0.0
2018-Jun-08 07:00N 46°30' W 001°47'0 0.0
2018-Jun-08 06:30N 46°30' W 001°47'0 0.0
2018-Jun-08 06:00N 46°30' W 001°47'0 0.0
2018-Jun-08 05:30N 46°30' W 001°47'0 0.0
2018-Jun-07 21:36N 46°30' W 001°47'0 0.0
2018-Jun-07 21:30N 46°30' W 001°47'0 0.0
2018-Jun-07 21:00N 46°30' W 001°47'0 0.3
2018-Jun-07 20:30N 46°30' W 001°48'0 0.2
2018-Jun-07 20:00N 46°30' W 001°47'0 0.0
2018-Jun-07 19:29N 46°30' W 001°47'0 0.2
2018-Jun-07 19:00N 46°30' W 001°48'0 0.5
2018-Jun-07 18:30N 46°30' W 001°47'1 1.5
2018-Jun-07 18:00N 46°29' W 001°47'4 7.8
2018-Jun-07 17:30N 46°28' W 001°53'4 8.8
2018-Jun-07 17:00N 46°27' W 001°59'4 8.6
2018-Jun-07 16:30N 46°27' W 002°05'9 0.5
2018-Jun-07 00:28N 46°32' W 002°14'3 7.0
2018-Jun-07 00:00N 46°32' W 002°10'3 7.0
2018-Jun-06 23:30N 46°31' W 002°05'3 6.8
2018-Jun-06 23:00N 46°30' W 002°00'3 7.0
2018-Jun-06 22:30N 46°30' W 001°55'4 7.0
2018-Jun-06 22:00N 46°28' W 001°50'2 4.4
2018-Jun-06 21:30N 46°30' W 001°48'0 0.9
2018-Jun-06 21:00N 46°30' W 001°47'2 4.3
2018-Jun-06 20:30N 46°28' W 001°47'3 6.9
2018-Jun-06 20:00N 46°24' W 001°48'4 7.8
2018-Jun-06 19:30N 46°21' W 001°50'4 8.1
2018-Jun-06 19:00N 46°17' W 001°51'4 7.8
2018-Jun-06 18:30N 46°13' W 001°53'  

Dump ship's entire track history